Sandy Valley, Nevada
Current Conditions -  °F | °C
As of 9:56 PM on Saturday 22 Nov 2014 (Local Time) from KHND Reporting Station
Clear Clear  
Wind Chill: 58°   Ceiling: Unl
Heat Index: 58°   Visibility: 10mi
Dew Point: 36°   Wind: 5mph
Humidity: 44%   Direction: 150°SSE
Pressure: 29.95"   Gusts: NA
Location:  35.8439°N, 115.475°W
Report Text: KHND 230556Z AUTO 15004KT 10SM CLR 14/02 A2995 RMK AO2 53026 T01440022 10200 20133 SLP134
Loading
Personal Weather Stations






























Interactive Weather Map New forecast layout! Learn more

10-Day Weather Forecast

Advertisements
Track Severe Weather on mobile